sensor_id;sensor_type;location;lat;lon;timestamp;P1;durP1;ratioP1;P2;durP2;ratioP2
10910;SDS011;5508;49.150;11.030;2024-01-30T00:00:09;7.43;;;5.43;;
10910;SDS011;5508;49.150;11.030;2024-01-30T00:03:10;8.97;;;5.83;;
10910;SDS011;5508;49.150;11.030;2024-01-30T00:06:11;8.57;;;6.23;;
10910;SDS011;5508;49.150;11.030;2024-01-30T00:09:12;10.23;;;6.80;;
10910;SDS011;5508;49.150;11.030;2024-01-30T00:12:12;8.20;;;5.87;;
10910;SDS011;5508;49.150;11.030;2024-01-30T00:15:13;8.83;;;6.40;;
10910;SDS011;5508;49.150;11.030;2024-01-30T00:18:14;9.23;;;6.40;;
10910;SDS011;5508;49.150;11.030;2024-01-30T00:21:14;8.23;;;6.23;;
10910;SDS011;5508;49.150;11.030;2024-01-30T00:24:15;8.17;;;6.33;;
10910;SDS011;5508;49.150;11.030;2024-01-30T00:27:15;13.80;;;9.40;;
10910;SDS011;5508;49.150;11.030;2024-01-30T00:30:16;16.37;;;9.90;;
10910;SDS011;5508;49.150;11.030;2024-01-30T00:33:17;15.07;;;9.07;;
10910;SDS011;5508;49.150;11.030;2024-01-30T00:36:17;12.43;;;9.97;;
10910;SDS011;5508;49.150;11.030;2024-01-30T00:39:18;12.67;;;9.27;;
10910;SDS011;5508;49.150;11.030;2024-01-30T00:42:19;18.50;;;10.60;;
10910;SDS011;5508;49.150;11.030;2024-01-30T00:45:20;25.57;;;15.70;;
10910;SDS011;5508;49.150;11.030;2024-01-30T00:48:20;18.47;;;12.63;;
10910;SDS011;5508;49.150;11.030;2024-01-30T00:51:21;15.17;;;10.73;;
10910;SDS011;5508;49.150;11.030;2024-01-30T00:54:21;11.73;;;8.57;;
10910;SDS011;5508;49.150;11.030;2024-01-30T00:57:22;10.97;;;8.80;;
10910;SDS011;5508;49.150;11.030;2024-01-30T01:00:23;23.33;;;14.47;;
10910;SDS011;5508;49.150;11.030;2024-01-30T01:03:28;16.17;;;10.10;;
10910;SDS011;5508;49.150;11.030;2024-01-30T01:06:29;15.63;;;9.53;;
10910;SDS011;5508;49.150;11.030;2024-01-30T01:09:30;13.50;;;8.97;;
10910;SDS011;5508;49.150;11.030;2024-01-30T01:12:30;12.47;;;8.90;;
10910;SDS011;5508;49.150;11.030;2024-01-30T01:15:31;11.93;;;8.33;;
10910;SDS011;5508;49.150;11.030;2024-01-30T01:18:31;11.90;;;8.47;;
10910;SDS011;5508;49.150;11.030;2024-01-30T01:21:32;16.07;;;10.17;;
10910;SDS011;5508;49.150;11.030;2024-01-30T01:24:33;12.73;;;9.27;;
10910;SDS011;5508;49.150;11.030;2024-01-30T01:27:34;11.23;;;8.33;;
10910;SDS011;5508;49.150;11.030;2024-01-30T01:30:38;9.70;;;7.30;;
10910;SDS011;5508;49.150;11.030;2024-01-30T01:33:39;9.57;;;7.17;;
10910;SDS011;5508;49.150;11.030;2024-01-30T01:36:39;10.03;;;7.50;;
10910;SDS011;5508;49.150;11.030;2024-01-30T01:39:40;10.13;;;7.47;;
10910;SDS011;5508;49.150;11.030;2024-01-30T01:42:40;12.67;;;8.57;;
10910;SDS011;5508;49.150;11.030;2024-01-30T01:45:41;14.77;;;9.33;;
10910;SDS011;5508;49.150;11.030;2024-01-30T01:48:41;23.73;;;13.27;;
10910;SDS011;5508;49.150;11.030;2024-01-30T01:51:43;29.33;;;16.10;;
10910;SDS011;5508;49.150;11.030;2024-01-30T01:54:45;33.23;;;19.57;;
10910;SDS011;5508;49.150;11.030;2024-01-30T01:57:45;15.77;;;10.17;;
10910;SDS011;5508;49.150;11.030;2024-01-30T02:00:46;13.43;;;9.40;;
10910;SDS011;5508;49.150;11.030;2024-01-30T02:03:47;13.93;;;9.20;;
10910;SDS011;5508;49.150;11.030;2024-01-30T02:06:47;15.47;;;10.17;;
10910;SDS011;5508;49.150;11.030;2024-01-30T02:09:48;20.47;;;13.13;;
10910;SDS011;5508;49.150;11.030;2024-01-30T02:12:49;13.97;;;10.07;;
10910;SDS011;5508;49.150;11.030;2024-01-30T02:15:50;13.60;;;9.27;;
10910;SDS011;5508;49.150;11.030;2024-01-30T02:18:51;14.87;;;10.13;;
10910;SDS011;5508;49.150;11.030;2024-01-30T02:21:52;12.50;;;8.63;;
10910;SDS011;5508;49.150;11.030;2024-01-30T02:24:53;13.77;;;9.20;;
10910;SDS011;5508;49.150;11.030;2024-01-30T02:27:53;15.50;;;9.47;;
10910;SDS011;5508;49.150;11.030;2024-01-30T02:30:54;13.60;;;9.57;;
10910;SDS011;5508;49.150;11.030;2024-01-30T02:33:54;19.50;;;12.27;;
10910;SDS011;5508;49.150;11.030;2024-01-30T02:36:55;21.17;;;12.40;;
10910;SDS011;5508;49.150;11.030;2024-01-30T02:39:56;18.10;;;9.80;;
10910;SDS011;5508;49.150;11.030;2024-01-30T02:42:57;11.77;;;8.23;;
10910;SDS011;5508;49.150;11.030;2024-01-30T02:45:58;13.27;;;8.83;;
10910;SDS011;5508;49.150;11.030;2024-01-30T02:49:00;13.73;;;9.47;;
10910;SDS011;5508;49.150;11.030;2024-01-30T02:52:02;13.00;;;8.97;;
10910;SDS011;5508;49.150;11.030;2024-01-30T02:55:03;14.87;;;9.97;;
10910;SDS011;5508;49.150;11.030;2024-01-30T02:58:03;16.97;;;10.60;;
10910;SDS011;5508;49.150;11.030;2024-01-30T03:01:04;18.63;;;11.70;;
10910;SDS011;5508;49.150;11.030;2024-01-30T03:04:05;15.30;;;10.23;;
10910;SDS011;5508;49.150;11.030;2024-01-30T03:07:05;16.83;;;10.23;;
10910;SDS011;5508;49.150;11.030;2024-01-30T03:10:06;12.40;;;9.10;;
10910;SDS011;5508;49.150;11.030;2024-01-30T03:13:07;18.47;;;11.97;;
10910;SDS011;5508;49.150;11.030;2024-01-30T03:16:08;15.90;;;11.00;;
10910;SDS011;5508;49.150;11.030;2024-01-30T03:19:08;16.57;;;11.63;;
10910;SDS011;5508;49.150;11.030;2024-01-30T03:22:09;13.77;;;9.90;;
10910;SDS011;5508;49.150;11.030;2024-01-30T03:25:09;16.87;;;10.77;;
10910;SDS011;5508;49.150;11.030;2024-01-30T03:28:10;15.70;;;11.47;;
10910;SDS011;5508;49.150;11.030;2024-01-30T03:31:13;13.80;;;10.00;;
10910;SDS011;5508;49.150;11.030;2024-01-30T03:34:14;15.63;;;9.70;;
10910;SDS011;5508;49.150;11.030;2024-01-30T03:37:15;13.53;;;9.67;;
10910;SDS011;5508;49.150;11.030;2024-01-30T03:40:15;12.40;;;8.97;;
10910;SDS011;5508;49.150;11.030;2024-01-30T03:43:16;14.73;;;9.57;;
10910;SDS011;5508;49.150;11.030;2024-01-30T03:46:17;13.53;;;9.17;;
10910;SDS011;5508;49.150;11.030;2024-01-30T03:49:17;11.70;;;9.27;;
10910;SDS011;5508;49.150;11.030;2024-01-30T03:52:18;18.23;;;11.17;;
10910;SDS011;5508;49.150;11.030;2024-01-30T03:55:18;22.03;;;12.33;;
10910;SDS011;5508;49.150;11.030;2024-01-30T03:58:19;16.57;;;11.47;;
10910;SDS011;5508;49.150;11.030;2024-01-30T04:01:20;16.57;;;10.83;;
10910;SDS011;5508;49.150;11.030;2024-01-30T04:04:20;17.03;;;9.13;;
10910;SDS011;5508;49.150;11.030;2024-01-30T04:07:21;17.80;;;9.77;;
10910;SDS011;5508;49.150;11.030;2024-01-30T04:10:21;13.17;;;8.27;;
10910;SDS011;5508;49.150;11.030;2024-01-30T04:13:23;10.70;;;7.70;;
10910;SDS011;5508;49.150;11.030;2024-01-30T04:16:23;14.53;;;8.70;;
10910;SDS011;5508;49.150;11.030;2024-01-30T04:19:24;12.80;;;8.27;;
10910;SDS011;5508;49.150;11.030;2024-01-30T04:22:24;10.13;;;7.30;;
10910;SDS011;5508;49.150;11.030;2024-01-30T04:25:25;11.30;;;7.90;;
10910;SDS011;5508;49.150;11.030;2024-01-30T04:28:26;12.17;;;8.30;;
10910;SDS011;5508;49.150;11.030;2024-01-30T04:31:26;11.43;;;7.93;;
10910;SDS011;5508;49.150;11.030;2024-01-30T04:34:27;15.73;;;9.00;;
10910;SDS011;5508;49.150;11.030;2024-01-30T04:37:27;14.80;;;9.80;;
10910;SDS011;5508;49.150;11.030;2024-01-30T04:40:28;13.23;;;9.40;;
10910;SDS011;5508;49.150;11.030;2024-01-30T04:43:28;12.90;;;9.10;;
10910;SDS011;5508;49.150;11.030;2024-01-30T04:46:29;15.27;;;9.77;;
10910;SDS011;5508;49.150;11.030;2024-01-30T04:49:30;15.40;;;8.80;;
10910;SDS011;5508;49.150;11.030;2024-01-30T04:52:30;13.03;;;9.27;;
10910;SDS011;5508;49.150;11.030;2024-01-30T04:55:31;14.20;;;10.50;;
10910;SDS011;5508;49.150;11.030;2024-01-30T04:58:31;12.53;;;9.57;;
10910;SDS011;5508;49.150;11.030;2024-01-30T05:01:32;13.47;;;10.20;;
10910;SDS011;5508;49.150;11.030;2024-01-30T05:04:32;14.97;;;10.60;;
10910;SDS011;5508;49.150;11.030;2024-01-30T05:07:33;12.00;;;8.90;;
10910;SDS011;5508;49.150;11.030;2024-01-30T05:10:34;11.83;;;9.37;;
10910;SDS011;5508;49.150;11.030;2024-01-30T05:13:34;15.67;;;11.07;;
10910;SDS011;5508;49.150;11.030;2024-01-30T05:16:35;14.40;;;10.60;;
10910;SDS011;5508;49.150;11.030;2024-01-30T05:19:36;16.20;;;11.93;;
10910;SDS011;5508;49.150;11.030;2024-01-30T05:22:36;16.47;;;11.33;;
10910;SDS011;5508;49.150;11.030;2024-01-30T05:25:37;13.97;;;10.50;;
10910;SDS011;5508;49.150;11.030;2024-01-30T05:28:37;13.97;;;9.27;;
10910;SDS011;5508;49.150;11.030;2024-01-30T05:31:38;11.77;;;8.03;;
10910;SDS011;5508;49.150;11.030;2024-01-30T05:34:38;15.27;;;9.83;;
10910;SDS011;5508;49.150;11.030;2024-01-30T05:37:39;13.37;;;11.00;;
10910;SDS011;5508;49.150;11.030;2024-01-30T05:40:40;11.63;;;9.07;;
10910;SDS011;5508;49.150;11.030;2024-01-30T05:43:41;12.30;;;8.53;;
10910;SDS011;5508;49.150;11.030;2024-01-30T05:46:42;9.10;;;7.40;;
10910;SDS011;5508;49.150;11.030;2024-01-30T05:49:42;9.93;;;7.60;;
10910;SDS011;5508;49.150;11.030;2024-01-30T05:52:43;13.20;;;7.93;;
10910;SDS011;5508;49.150;11.030;2024-01-30T05:55:44;11.80;;;8.40;;
10910;SDS011;5508;49.150;11.030;2024-01-30T05:58:44;11.70;;;8.60;;
10910;SDS011;5508;49.150;11.030;2024-01-30T06:01:46;11.87;;;8.77;;
10910;SDS011;5508;49.150;11.030;2024-01-30T06:04:47;29.87;;;18.97;;
10910;SDS011;5508;49.150;11.030;2024-01-30T06:07:48;17.17;;;13.13;;
10910;SDS011;5508;49.150;11.030;2024-01-30T06:10:48;13.50;;;10.67;;
10910;SDS011;5508;49.150;11.030;2024-01-30T06:13:49;11.60;;;9.07;;
10910;SDS011;5508;49.150;11.030;2024-01-30T06:16:50;17.03;;;10.50;;
10910;SDS011;5508;49.150;11.030;2024-01-30T06:19:50;11.70;;;8.57;;
10910;SDS011;5508;49.150;11.030;2024-01-30T06:22:51;13.77;;;9.53;;
10910;SDS011;5508;49.150;11.030;2024-01-30T06:25:51;12.40;;;8.97;;
10910;SDS011;5508;49.150;11.030;2024-01-30T06:28:52;12.13;;;8.50;;
10910;SDS011;5508;49.150;11.030;2024-01-30T06:31:52;11.20;;;8.07;;
10910;SDS011;5508;49.150;11.030;2024-01-30T06:34:53;11.80;;;8.47;;
10910;SDS011;5508;49.150;11.030;2024-01-30T06:37:53;11.40;;;8.60;;
10910;SDS011;5508;49.150;11.030;2024-01-30T06:40:54;14.57;;;9.73;;
10910;SDS011;5508;49.150;11.030;2024-01-30T06:43:55;13.27;;;9.13;;
10910;SDS011;5508;49.150;11.030;2024-01-30T06:46:56;13.13;;;9.33;;
10910;SDS011;5508;49.150;11.030;2024-01-30T06:49:56;13.07;;;9.43;;
10910;SDS011;5508;49.150;11.030;2024-01-30T06:52:57;17.83;;;12.27;;
10910;SDS011;5508;49.150;11.030;2024-01-30T06:55:57;16.93;;;11.53;;
10910;SDS011;5508;49.150;11.030;2024-01-30T06:58:58;16.93;;;10.93;;
10910;SDS011;5508;49.150;11.030;2024-01-30T07:01:59;16.27;;;11.20;;
10910;SDS011;5508;49.150;11.030;2024-01-30T07:05:00;14.83;;;9.43;;
10910;SDS011;5508;49.150;11.030;2024-01-30T07:08:00;13.50;;;9.27;;
10910;SDS011;5508;49.150;11.030;2024-01-30T07:11:01;15.93;;;9.87;;
10910;SDS011;5508;49.150;11.030;2024-01-30T07:14:01;12.00;;;9.30;;
10910;SDS011;5508;49.150;11.030;2024-01-30T07:17:05;11.13;;;8.60;;
10910;SDS011;5508;49.150;11.030;2024-01-30T07:20:06;14.67;;;8.63;;
10910;SDS011;5508;49.150;11.030;2024-01-30T07:23:07;12.13;;;8.87;;
10910;SDS011;5508;49.150;11.030;2024-01-30T07:26:08;14.47;;;8.80;;
10910;SDS011;5508;49.150;11.030;2024-01-30T07:29:09;13.10;;;9.20;;
10910;SDS011;5508;49.150;11.030;2024-01-30T07:32:09;14.77;;;9.53;;
10910;SDS011;5508;49.150;11.030;2024-01-30T07:35:10;13.60;;;9.87;;
10910;SDS011;5508;49.150;11.030;2024-01-30T07:38:11;15.13;;;9.37;;
10910;SDS011;5508;49.150;11.030;2024-01-30T07:41:12;14.53;;;11.37;;
10910;SDS011;5508;49.150;11.030;2024-01-30T07:44:12;15.17;;;11.10;;
10910;SDS011;5508;49.150;11.030;2024-01-30T07:47:13;13.20;;;11.07;;
10910;SDS011;5508;49.150;11.030;2024-01-30T07:50:13;15.10;;;10.10;;
10910;SDS011;5508;49.150;11.030;2024-01-30T07:53:14;10.37;;;8.77;;
10910;SDS011;5508;49.150;11.030;2024-01-30T07:56:15;16.73;;;10.43;;
10910;SDS011;5508;49.150;11.030;2024-01-30T07:59:16;13.60;;;11.47;;
10910;SDS011;5508;49.150;11.030;2024-01-30T08:02:16;12.53;;;10.67;;
10910;SDS011;5508;49.150;11.030;2024-01-30T08:05:17;13.13;;;9.33;;
10910;SDS011;5508;49.150;11.030;2024-01-30T08:08:17;12.93;;;9.67;;
10910;SDS011;5508;49.150;11.030;2024-01-30T08:11:19;14.50;;;10.80;;
10910;SDS011;5508;49.150;11.030;2024-01-30T08:14:20;16.53;;;10.50;;
10910;SDS011;5508;49.150;11.030;2024-01-30T08:17:21;14.83;;;10.73;;
10910;SDS011;5508;49.150;11.030;2024-01-30T08:20:21;12.30;;;8.90;;
10910;SDS011;5508;49.150;11.030;2024-01-30T08:23:22;10.70;;;8.40;;
10910;SDS011;5508;49.150;11.030;2024-01-30T08:26:23;12.10;;;8.87;;
10910;SDS011;5508;49.150;11.030;2024-01-30T08:29:24;12.50;;;8.57;;
10910;SDS011;5508;49.150;11.030;2024-01-30T08:32:24;14.23;;;9.70;;
10910;SDS011;5508;49.150;11.030;2024-01-30T08:35:25;12.50;;;9.10;;
10910;SDS011;5508;49.150;11.030;2024-01-30T08:38:25;11.10;;;8.63;;
10910;SDS011;5508;49.150;11.030;2024-01-30T08:41:26;11.93;;;8.90;;
10910;SDS011;5508;49.150;11.030;2024-01-30T08:44:26;13.37;;;9.03;;
10910;SDS011;5508;49.150;11.030;2024-01-30T08:47:27;12.07;;;9.30;;
10910;SDS011;5508;49.150;11.030;2024-01-30T08:50:28;14.60;;;10.47;;
10910;SDS011;5508;49.150;11.030;2024-01-30T08:53:29;12.67;;;9.87;;
10910;SDS011;5508;49.150;11.030;2024-01-30T08:56:30;12.60;;;10.23;;
10910;SDS011;5508;49.150;11.030;2024-01-30T08:59:30;13.87;;;11.10;;
10910;SDS011;5508;49.150;11.030;2024-01-30T09:02:31;16.33;;;10.93;;
10910;SDS011;5508;49.150;11.030;2024-01-30T09:05:32;15.70;;;12.03;;
10910;SDS011;5508;49.150;11.030;2024-01-30T09:08:33;13.60;;;11.30;;
10910;SDS011;5508;49.150;11.030;2024-01-30T09:11:34;15.77;;;12.03;;
10910;SDS011;5508;49.150;11.030;2024-01-30T09:14:36;15.33;;;12.27;;
10910;SDS011;5508;49.150;11.030;2024-01-30T09:17:37;18.17;;;13.00;;
10910;SDS011;5508;49.150;11.030;2024-01-30T09:20:38;14.90;;;11.87;;
10910;SDS011;5508;49.150;11.030;2024-01-30T09:23:38;17.10;;;11.73;;
10910;SDS011;5508;49.150;11.030;2024-01-30T09:26:39;15.13;;;11.23;;
10910;SDS011;5508;49.150;11.030;2024-01-30T09:29:40;19.87;;;13.50;;
10910;SDS011;5508;49.150;11.030;2024-01-30T09:32:40;19.77;;;15.50;;
10910;SDS011;5508;49.150;11.030;2024-01-30T09:35:41;21.43;;;15.63;;
10910;SDS011;5508;49.150;11.030;2024-01-30T09:38:42;14.83;;;11.77;;
10910;SDS011;5508;49.150;11.030;2024-01-30T09:41:49;13.00;;;11.60;;
10910;SDS011;5508;49.150;11.030;2024-01-30T09:45:02;13.07;;;10.47;;
10910;SDS011;5508;49.150;11.030;2024-01-30T09:48:06;14.67;;;12.67;;
10910;SDS011;5508;49.150;11.030;2024-01-30T09:51:07;14.17;;;11.43;;
10910;SDS011;5508;49.150;11.030;2024-01-30T09:54:09;21.07;;;13.47;;
10910;SDS011;5508;49.150;11.030;2024-01-30T09:57:11;15.87;;;12.23;;
10910;SDS011;5508;49.150;11.030;2024-01-30T10:00:12;14.93;;;11.87;;
10910;SDS011;5508;49.150;11.030;2024-01-30T10:03:13;19.70;;;13.93;;
10910;SDS011;5508;49.150;11.030;2024-01-30T10:06:14;19.60;;;12.60;;
10910;SDS011;5508;49.150;11.030;2024-01-30T10:09:17;18.30;;;12.40;;
10910;SDS011;5508;49.150;11.030;2024-01-30T10:12:17;14.27;;;12.00;;
10910;SDS011;5508;49.150;11.030;2024-01-30T10:15:18;13.67;;;11.10;;
10910;SDS011;5508;49.150;11.030;2024-01-30T10:18:22;18.63;;;11.43;;
10910;SDS011;5508;49.150;11.030;2024-01-30T10:21:23;15.90;;;12.30;;
10910;SDS011;5508;49.150;11.030;2024-01-30T10:24:24;15.27;;;11.87;;
10910;SDS011;5508;49.150;11.030;2024-01-30T10:27:29;16.47;;;12.67;;
10910;SDS011;5508;49.150;11.030;2024-01-30T10:30:29;17.23;;;13.43;;
10910;SDS011;5508;49.150;11.030;2024-01-30T10:33:30;13.93;;;11.90;;
10910;SDS011;5508;49.150;11.030;2024-01-30T10:36:31;17.40;;;12.17;;
10910;SDS011;5508;49.150;11.030;2024-01-30T10:39:39;13.67;;;11.67;;
10910;SDS011;5508;49.150;11.030;2024-01-30T10:42:44;13.10;;;10.93;;
10910;SDS011;5508;49.150;11.030;2024-01-30T10:45:45;14.10;;;10.67;;
10910;SDS011;5508;49.150;11.030;2024-01-30T10:48:56;11.93;;;10.30;;
10910;SDS011;5508;49.150;11.030;2024-01-30T10:51:58;11.67;;;9.73;;
10910;SDS011;5508;49.150;11.030;2024-01-30T10:55:00;24.43;;;10.77;;
10910;SDS011;5508;49.150;11.030;2024-01-30T10:58:01;14.90;;;10.87;;
10910;SDS011;5508;49.150;11.030;2024-01-30T11:01:02;15.70;;;12.20;;
10910;SDS011;5508;49.150;11.030;2024-01-30T11:04:03;13.07;;;11.03;;
10910;SDS011;5508;49.150;11.030;2024-01-30T11:07:14;12.70;;;10.37;;
10910;SDS011;5508;49.150;11.030;2024-01-30T11:10:20;12.67;;;11.20;;
10910;SDS011;5508;49.150;11.030;2024-01-30T11:13:27;11.87;;;10.67;;
10910;SDS011;5508;49.150;11.030;2024-01-30T11:16:31;11.90;;;10.10;;
10910;SDS011;5508;49.150;11.030;2024-01-30T11:19:33;11.70;;;9.53;;
10910;SDS011;5508;49.150;11.030;2024-01-30T11:22:33;11.90;;;10.40;;
10910;SDS011;5508;49.150;11.030;2024-01-30T11:25:34;14.60;;;11.93;;
10910;SDS011;5508;49.150;11.030;2024-01-30T11:28:35;12.80;;;10.37;;
10910;SDS011;5508;49.150;11.030;2024-01-30T11:31:38;13.73;;;10.93;;
10910;SDS011;5508;49.150;11.030;2024-01-30T11:34:40;13.27;;;11.70;;
10910;SDS011;5508;49.150;11.030;2024-01-30T11:37:42;13.30;;;11.00;;
10910;SDS011;5508;49.150;11.030;2024-01-30T11:40:45;13.47;;;11.97;;
10910;SDS011;5508;49.150;11.030;2024-01-30T11:43:51;15.57;;;12.30;;
10910;SDS011;5508;49.150;11.030;2024-01-30T11:46:52;12.73;;;9.80;;
10910;SDS011;5508;49.150;11.030;2024-01-30T11:49:53;12.03;;;10.17;;
10910;SDS011;5508;49.150;11.030;2024-01-30T11:52:54;14.03;;;10.93;;
10910;SDS011;5508;49.150;11.030;2024-01-30T11:55:55;14.07;;;9.77;;
10910;SDS011;5508;49.150;11.030;2024-01-30T11:58:55;12.93;;;10.43;;
10910;SDS011;5508;49.150;11.030;2024-01-30T12:01:56;14.63;;;9.90;;
10910;SDS011;5508;49.150;11.030;2024-01-30T12:04:56;10.77;;;9.47;;
10910;SDS011;5508;49.150;11.030;2024-01-30T12:07:57;13.07;;;9.83;;
10910;SDS011;5508;49.150;11.030;2024-01-30T12:11:01;14.17;;;10.33;;
10910;SDS011;5508;49.150;11.030;2024-01-30T12:14:02;10.97;;;9.83;;
10910;SDS011;5508;49.150;11.030;2024-01-30T12:17:02;13.23;;;10.53;;
10910;SDS011;5508;49.150;11.030;2024-01-30T12:23:13;13.63;;;10.60;;
10910;SDS011;5508;49.150;11.030;2024-01-30T12:26:14;12.33;;;9.93;;
10910;SDS011;5508;49.150;11.030;2024-01-30T12:29:15;13.50;;;10.50;;
10910;SDS011;5508;49.150;11.030;2024-01-30T12:32:16;13.30;;;10.83;;
10910;SDS011;5508;49.150;11.030;2024-01-30T12:35:17;15.03;;;11.67;;
10910;SDS011;5508;49.150;11.030;2024-01-30T12:38:19;15.23;;;12.37;;
10910;SDS011;5508;49.150;11.030;2024-01-30T12:41:19;14.10;;;12.47;;
10910;SDS011;5508;49.150;11.030;2024-01-30T12:44:20;16.73;;;12.93;;
10910;SDS011;5508;49.150;11.030;2024-01-30T12:47:21;13.73;;;12.23;;
10910;SDS011;5508;49.150;11.030;2024-01-30T12:50:22;19.93;;;13.07;;
10910;SDS011;5508;49.150;11.030;2024-01-30T12:53:22;15.47;;;12.17;;
10910;SDS011;5508;49.150;11.030;2024-01-30T12:56:23;14.63;;;11.70;;
10910;SDS011;5508;49.150;11.030;2024-01-30T12:59:23;14.57;;;10.90;;
10910;SDS011;5508;49.150;11.030;2024-01-30T13:02:24;11.93;;;10.57;;
10910;SDS011;5508;49.150;11.030;2024-01-30T13:05:26;13.73;;;11.03;;
10910;SDS011;5508;49.150;11.030;2024-01-30T13:08:27;14.43;;;11.13;;
10910;SDS011;5508;49.150;11.030;2024-01-30T13:11:27;13.30;;;10.63;;
10910;SDS011;5508;49.150;11.030;2024-01-30T13:14:28;14.73;;;11.37;;
10910;SDS011;5508;49.150;11.030;2024-01-30T13:17:29;12.17;;;10.47;;
10910;SDS011;5508;49.150;11.030;2024-01-30T13:20:29;15.53;;;10.60;;
10910;SDS011;5508;49.150;11.030;2024-01-30T13:23:30;12.43;;;11.13;;
10910;SDS011;5508;49.150;11.030;2024-01-30T13:26:33;13.87;;;11.53;;
10910;SDS011;5508;49.150;11.030;2024-01-30T13:29:34;12.30;;;9.77;;
10910;SDS011;5508;49.150;11.030;2024-01-30T13:32:35;19.50;;;12.93;;
10910;SDS011;5508;49.150;11.030;2024-01-30T13:35:36;16.83;;;12.40;;
10910;SDS011;5508;49.150;11.030;2024-01-30T13:38:36;14.93;;;12.90;;
10910;SDS011;5508;49.150;11.030;2024-01-30T13:41:37;12.37;;;11.07;;
10910;SDS011;5508;49.150;11.030;2024-01-30T13:44:38;14.43;;;12.50;;
10910;SDS011;5508;49.150;11.030;2024-01-30T13:47:39;18.43;;;11.43;;
10910;SDS011;5508;49.150;11.030;2024-01-30T13:50:39;14.83;;;11.33;;
10910;SDS011;5508;49.150;11.030;2024-01-30T13:53:40;12.00;;;9.73;;
10910;SDS011;5508;49.150;11.030;2024-01-30T13:56:40;11.30;;;9.97;;
10910;SDS011;5508;49.150;11.030;2024-01-30T13:59:41;28.23;;;18.57;;
10910;SDS011;5508;49.150;11.030;2024-01-30T14:02:42;20.30;;;14.57;;
10910;SDS011;5508;49.150;11.030;2024-01-30T14:05:42;14.67;;;11.03;;
10910;SDS011;5508;49.150;11.030;2024-01-30T14:08:44;15.57;;;10.87;;
10910;SDS011;5508;49.150;11.030;2024-01-30T14:11:44;12.93;;;9.33;;
10910;SDS011;5508;49.150;11.030;2024-01-30T14:14:45;12.50;;;9.70;;
10910;SDS011;5508;49.150;11.030;2024-01-30T14:17:45;13.23;;;9.80;;
10910;SDS011;5508;49.150;11.030;2024-01-30T14:20:48;20.10;;;15.53;;
10910;SDS011;5508;49.150;11.030;2024-01-30T14:23:49;12.33;;;9.37;;
10910;SDS011;5508;49.150;11.030;2024-01-30T14:26:49;14.27;;;12.73;;
10910;SDS011;5508;49.150;11.030;2024-01-30T14:29:51;12.70;;;10.83;;
10910;SDS011;5508;49.150;11.030;2024-01-30T14:32:51;15.07;;;13.47;;
10910;SDS011;5508;49.150;11.030;2024-01-30T14:35:52;13.23;;;10.80;;
10910;SDS011;5508;49.150;11.030;2024-01-30T14:38:53;12.67;;;10.00;;
10910;SDS011;5508;49.150;11.030;2024-01-30T14:41:54;25.87;;;21.23;;
10910;SDS011;5508;49.150;11.030;2024-01-30T14:44:55;16.03;;;14.30;;
10910;SDS011;5508;49.150;11.030;2024-01-30T14:47:56;13.57;;;11.63;;
10910;SDS011;5508;49.150;11.030;2024-01-30T14:50:57;9.40;;;8.40;;
10910;SDS011;5508;49.150;11.030;2024-01-30T14:53:57;12.50;;;10.00;;
10910;SDS011;5508;49.150;11.030;2024-01-30T14:56:58;10.23;;;7.33;;
10910;SDS011;5508;49.150;11.030;2024-01-30T14:59:59;12.23;;;8.70;;
10910;SDS011;5508;49.150;11.030;2024-01-30T15:03:00;9.33;;;7.53;;
10910;SDS011;5508;49.150;11.030;2024-01-30T15:06:00;15.93;;;7.90;;
10910;SDS011;5508;49.150;11.030;2024-01-30T15:09:01;9.40;;;7.47;;
10910;SDS011;5508;49.150;11.030;2024-01-30T15:12:02;10.83;;;7.83;;
10910;SDS011;5508;49.150;11.030;2024-01-30T15:15:04;15.47;;;10.90;;
10910;SDS011;5508;49.150;11.030;2024-01-30T15:18:07;16.07;;;12.47;;
10910;SDS011;5508;49.150;11.030;2024-01-30T15:21:11;14.67;;;10.17;;
10910;SDS011;5508;49.150;11.030;2024-01-30T15:24:11;18.83;;;10.47;;
10910;SDS011;5508;49.150;11.030;2024-01-30T15:27:14;16.27;;;10.17;;
10910;SDS011;5508;49.150;11.030;2024-01-30T15:30:15;12.10;;;8.80;;
10910;SDS011;5508;49.150;11.030;2024-01-30T15:33:16;10.33;;;7.53;;
10910;SDS011;5508;49.150;11.030;2024-01-30T15:36:16;11.20;;;8.70;;
10910;SDS011;5508;49.150;11.030;2024-01-30T15:39:17;17.77;;;10.33;;
10910;SDS011;5508;49.150;11.030;2024-01-30T15:42:18;16.80;;;9.53;;
10910;SDS011;5508;49.150;11.030;2024-01-30T15:45:19;12.90;;;8.80;;
10910;SDS011;5508;49.150;11.030;2024-01-30T15:48:20;11.80;;;8.73;;
10910;SDS011;5508;49.150;11.030;2024-01-30T15:51:21;10.60;;;8.87;;
10910;SDS011;5508;49.150;11.030;2024-01-30T15:54:21;14.13;;;10.87;;
10910;SDS011;5508;49.150;11.030;2024-01-30T15:57:22;14.60;;;11.43;;
10910;SDS011;5508;49.150;11.030;2024-01-30T16:00:23;10.47;;;8.97;;
10910;SDS011;5508;49.150;11.030;2024-01-30T16:03:23;9.93;;;8.00;;
10910;SDS011;5508;49.150;11.030;2024-01-30T16:06:24;11.33;;;8.63;;
10910;SDS011;5508;49.150;11.030;2024-01-30T16:09:25;18.00;;;12.10;;
10910;SDS011;5508;49.150;11.030;2024-01-30T16:12:25;14.83;;;11.37;;
10910;SDS011;5508;49.150;11.030;2024-01-30T16:15:26;13.60;;;10.77;;
10910;SDS011;5508;49.150;11.030;2024-01-30T16:18:27;9.90;;;8.87;;
10910;SDS011;5508;49.150;11.030;2024-01-30T16:21:31;12.90;;;10.33;;
10910;SDS011;5508;49.150;11.030;2024-01-30T16:24:31;11.73;;;8.70;;
10910;SDS011;5508;49.150;11.030;2024-01-30T16:27:32;9.37;;;8.00;;
10910;SDS011;5508;49.150;11.030;2024-01-30T16:30:32;10.07;;;8.00;;
10910;SDS011;5508;49.150;11.030;2024-01-30T16:33:33;10.23;;;7.57;;
10910;SDS011;5508;49.150;11.030;2024-01-30T16:36:34;11.47;;;9.37;;
10910;SDS011;5508;49.150;11.030;2024-01-30T16:39:34;21.40;;;9.27;;
10910;SDS011;5508;49.150;11.030;2024-01-30T16:42:35;11.37;;;8.73;;
10910;SDS011;5508;49.150;11.030;2024-01-30T16:45:35;9.53;;;8.23;;
10910;SDS011;5508;49.150;11.030;2024-01-30T16:48:36;10.43;;;8.00;;
10910;SDS011;5508;49.150;11.030;2024-01-30T16:51:36;10.47;;;9.20;;
10910;SDS011;5508;49.150;11.030;2024-01-30T16:54:37;14.60;;;9.87;;
10910;SDS011;5508;49.150;11.030;2024-01-30T16:57:37;10.53;;;8.03;;
10910;SDS011;5508;49.150;11.030;2024-01-30T17:00:38;12.13;;;7.37;;
10910;SDS011;5508;49.150;11.030;2024-01-30T17:03:39;9.30;;;6.67;;
10910;SDS011;5508;49.150;11.030;2024-01-30T17:06:41;10.37;;;7.00;;
10910;SDS011;5508;49.150;11.030;2024-01-30T17:09:42;7.33;;;6.40;;
10910;SDS011;5508;49.150;11.030;2024-01-30T17:12:43;11.33;;;9.03;;
10910;SDS011;5508;49.150;11.030;2024-01-30T17:15:44;9.53;;;8.63;;
10910;SDS011;5508;49.150;11.030;2024-01-30T17:18:45;13.80;;;12.33;;
10910;SDS011;5508;49.150;11.030;2024-01-30T17:21:45;13.47;;;10.30;;
10910;SDS011;5508;49.150;11.030;2024-01-30T17:24:46;10.00;;;7.70;;
10910;SDS011;5508;49.150;11.030;2024-01-30T17:27:46;12.37;;;9.67;;
10910;SDS011;5508;49.150;11.030;2024-01-30T17:30:48;15.90;;;7.67;;
10910;SDS011;5508;49.150;11.030;2024-01-30T17:33:49;9.00;;;6.67;;
10910;SDS011;5508;49.150;11.030;2024-01-30T17:36:50;10.63;;;8.37;;
10910;SDS011;5508;49.150;11.030;2024-01-30T17:39:51;11.67;;;9.07;;
10910;SDS011;5508;49.150;11.030;2024-01-30T17:42:51;9.20;;;7.90;;
10910;SDS011;5508;49.150;11.030;2024-01-30T17:45:52;9.47;;;7.50;;
10910;SDS011;5508;49.150;11.030;2024-01-30T17:48:53;10.10;;;7.53;;